createdAt,value
2017-09-02T00:02:07.273Z,6.53
2017-09-02T00:04:35.094Z,6.60
2017-09-02T00:07:02.985Z,6.60
2017-09-02T00:09:30.812Z,6.33
2017-09-02T00:11:58.666Z,6.33
2017-09-02T00:14:26.467Z,5.90
2017-09-02T00:16:54.312Z,5.97
2017-09-02T00:19:22.124Z,6.23
2017-09-02T00:21:49.984Z,6.53
2017-09-02T00:24:17.859Z,7.30
2017-09-02T00:26:45.718Z,7.23
2017-09-02T00:29:13.536Z,7.30
2017-09-02T00:31:41.403Z,7.20
2017-09-02T00:34:09.260Z,7.83
2017-09-02T00:36:37.137Z,7.70
2017-09-02T00:39:05.001Z,7.30
2017-09-02T00:41:32.865Z,6.80
2017-09-02T00:44:00.725Z,7.20
2017-09-02T00:46:28.461Z,7.57
2017-09-02T00:48:56.359Z,6.67
2017-09-02T00:51:24.104Z,6.50
2017-09-02T00:53:51.867Z,6.53
2017-09-02T00:56:19.610Z,6.40
2017-09-02T00:58:47.501Z,7.50
2017-09-02T01:01:15.352Z,6.20
2017-09-02T01:03:43.210Z,6.80
2017-09-02T01:06:11.124Z,6.70
2017-09-02T01:08:39.001Z,6.90
2017-09-02T01:11:06.821Z,7.30
2017-09-02T01:13:34.691Z,7.50
2017-09-02T01:16:02.509Z,5.97
2017-09-02T01:18:30.354Z,6.37
2017-09-02T01:20:58.214Z,6.97
2017-09-02T01:23:26.054Z,6.53
2017-09-02T01:25:53.932Z,6.43
2017-09-02T01:28:21.761Z,6.77
2017-09-02T01:30:49.652Z,6.20
2017-09-02T01:33:17.437Z,6.27
2017-09-02T01:35:45.313Z,7.43
2017-09-02T01:38:13.033Z,5.93
2017-09-02T01:40:40.901Z,7.80
2017-09-02T01:43:08.724Z,7.20
2017-09-02T01:45:36.591Z,6.57
2017-09-02T01:48:04.418Z,6.10
2017-09-02T01:50:32.269Z,7.17
2017-09-02T01:53:01.080Z,6.70
2017-09-02T01:55:28.888Z,6.40
2017-09-02T01:57:56.656Z,6.50
2017-09-02T02:00:24.488Z,6.50
2017-09-02T02:02:52.368Z,5.63
2017-09-02T02:05:20.200Z,5.73
2017-09-02T02:07:48.103Z,5.40
2017-09-02T02:10:15.982Z,6.60
2017-09-02T02:12:43.840Z,7.10
2017-09-02T02:15:11.710Z,6.30
2017-09-02T02:17:39.608Z,5.67
2017-09-02T02:20:07.434Z,4.90
2017-09-02T02:22:35.273Z,5.00
2017-09-02T02:25:03.134Z,7.10
2017-09-02T02:27:30.944Z,5.57
2017-09-02T02:29:58.792Z,5.53
2017-09-02T02:32:26.610Z,5.53
2017-09-02T02:34:54.495Z,6.17
2017-09-02T02:37:22.329Z,5.57
2017-09-02T02:39:50.190Z,5.80
2017-09-02T02:42:18.014Z,6.30
2017-09-02T02:44:45.873Z,6.03
2017-09-02T02:47:13.688Z,5.97
2017-09-02T02:49:41.541Z,5.70
2017-09-02T02:52:09.356Z,5.90
2017-09-02T02:54:37.160Z,6.53
2017-09-02T02:57:05.007Z,6.17
2017-09-02T02:59:32.820Z,5.80
2017-09-02T03:02:00.716Z,6.60
2017-09-02T03:04:28.528Z,5.93
2017-09-02T03:06:56.403Z,5.60
2017-09-02T03:09:24.205Z,5.53
2017-09-02T03:11:52.081Z,6.50
2017-09-02T03:14:19.903Z,6.40
2017-09-02T03:16:47.657Z,6.20
2017-09-02T03:19:15.475Z,5.77
2017-09-02T03:21:43.329Z,5.43
2017-09-02T03:24:11.182Z,5.80
2017-09-02T03:26:39.031Z,5.70
2017-09-02T03:29:06.884Z,6.17
2017-09-02T03:31:34.698Z,5.70
2017-09-02T03:34:02.558Z,5.67
2017-09-02T03:36:30.294Z,6.20
2017-09-02T03:38:58.168Z,6.30
2017-09-02T03:41:26.012Z,7.30
2017-09-02T03:43:53.879Z,6.20
2017-09-02T03:46:21.714Z,8.87
2017-09-02T03:48:49.570Z,7.10
2017-09-02T03:51:17.381Z,5.67
2017-09-02T03:53:45.229Z,6.27
2017-09-02T03:56:13.062Z,6.40
2017-09-02T03:58:40.896Z,6.20
2017-09-02T04:01:08.718Z,6.33
2017-09-02T04:03:36.525Z,5.73
2017-09-02T04:06:04.301Z,5.90
2017-09-02T04:08:32.097Z,5.63
2017-09-02T04:10:59.963Z,5.77
2017-09-02T04:13:27.791Z,6.33
2017-09-02T04:15:55.666Z,7.10
2017-09-02T04:18:23.480Z,7.87
2017-09-02T04:20:51.332Z,9.20
2017-09-02T04:23:19.218Z,9.87
2017-09-02T04:25:47.087Z,7.80
2017-09-02T04:28:14.885Z,6.30
2017-09-02T04:30:42.684Z,6.50
2017-09-02T04:33:10.551Z,7.40
2017-09-02T04:35:38.369Z,6.40
2017-09-02T04:38:06.281Z,6.60
2017-09-02T04:40:34.093Z,7.60
2017-09-02T04:43:01.941Z,7.20
2017-09-02T04:45:29.757Z,6.97
2017-09-02T04:47:57.597Z,7.00
2017-09-02T04:50:25.336Z,6.37
2017-09-02T04:52:53.176Z,7.37
2017-09-02T04:55:20.904Z,6.90
2017-09-02T04:57:48.792Z,7.57
2017-09-02T05:00:16.626Z,6.43
2017-09-02T05:02:44.463Z,7.60
2017-09-02T05:05:12.323Z,7.80
2017-09-02T05:07:40.129Z,7.20
2017-09-02T05:10:07.994Z,7.60
2017-09-02T05:12:35.743Z,7.20
2017-09-02T05:15:03.563Z,7.63
2017-09-02T05:17:31.367Z,7.07
2017-09-02T05:19:59.279Z,7.50
2017-09-02T05:22:27.051Z,7.70
2017-09-02T05:24:54.896Z,7.40
2017-09-02T05:27:22.699Z,6.37
2017-09-02T05:29:50.556Z,6.53
2017-09-02T05:32:18.383Z,6.93
2017-09-02T05:34:46.254Z,6.10
2017-09-02T05:37:14.065Z,6.63
2017-09-02T05:39:41.891Z,7.03
2017-09-02T05:42:09.687Z,5.37
2017-09-02T05:44:37.522Z,5.80
2017-09-02T05:47:05.281Z,6.03
2017-09-02T05:49:33.000Z,5.83
2017-09-02T05:52:00.739Z,6.53
2017-09-02T05:54:28.477Z,7.40
2017-09-02T05:56:56.236Z,7.80
2017-09-02T05:59:23.941Z,8.20
2017-09-02T06:01:51.736Z,8.10
2017-09-02T06:04:19.454Z,8.60
2017-09-02T06:06:47.197Z,8.13
2017-09-02T06:09:14.904Z,8.80
2017-09-02T06:11:42.689Z,9.90
2017-09-02T06:14:10.398Z,9.17
2017-09-02T06:16:38.154Z,9.63
2017-09-02T06:19:05.919Z,10.47
2017-09-02T06:21:33.656Z,10.50
2017-09-02T06:24:01.493Z,11.10
2017-09-02T06:26:29.205Z,10.70
2017-09-02T06:28:57.064Z,11.33
2017-09-02T06:31:24.774Z,12.13
2017-09-02T06:33:52.548Z,12.83
2017-09-02T06:36:20.273Z,12.50
2017-09-02T06:38:48.056Z,13.20
2017-09-02T06:41:15.812Z,12.80
2017-09-02T06:43:43.593Z,12.17
2017-09-02T06:46:11.330Z,11.93
2017-09-02T06:48:39.228Z,10.93
2017-09-02T06:51:07.058Z,10.63
2017-09-02T06:53:35.662Z,11.17
2017-09-02T06:56:03.493Z,10.87
2017-09-02T06:58:31.345Z,10.90
2017-09-02T07:00:59.292Z,9.23
2017-09-02T07:03:27.178Z,9.87
2017-09-02T07:05:55.023Z,10.30
2017-09-02T07:08:22.787Z,9.47
2017-09-02T07:10:50.552Z,7.77
2017-09-02T07:13:18.265Z,9.23
2017-09-02T07:15:46.041Z,8.07
2017-09-02T07:18:13.774Z,8.53
2017-09-02T07:20:41.560Z,8.90
2017-09-02T07:23:09.288Z,8.17
2017-09-02T07:25:37.057Z,8.40
2017-09-02T07:28:04.785Z,8.40
2017-09-02T07:30:32.492Z,8.17
2017-09-02T07:33:00.289Z,9.17
2017-09-02T07:35:27.998Z,8.47
2017-09-02T07:37:55.782Z,7.93
2017-09-02T07:40:23.471Z,6.83
2017-09-02T07:42:51.255Z,6.73
2017-09-02T07:45:18.973Z,6.47
2017-09-02T07:47:46.730Z,6.33
2017-09-02T07:50:14.503Z,6.47
2017-09-02T07:52:42.295Z,6.37
2017-09-02T07:55:10.028Z,7.10
2017-09-02T07:57:37.780Z,7.30
2017-09-02T08:00:05.473Z,7.40
2017-09-02T08:02:33.334Z,8.70
2017-09-02T08:05:01.098Z,8.33
2017-09-02T08:07:28.873Z,8.50
2017-09-02T08:09:56.684Z,8.93
2017-09-02T08:12:24.465Z,7.93
2017-09-02T08:14:52.273Z,7.40
2017-09-02T08:17:20.028Z,8.00
2017-09-02T08:19:47.868Z,7.23
2017-09-02T08:22:15.611Z,7.60
2017-09-02T08:24:43.410Z,7.70
2017-09-02T08:27:11.141Z,7.73
2017-09-02T08:29:38.888Z,7.40
2017-09-02T08:32:06.709Z,6.70
2017-09-02T08:34:34.541Z,7.40
2017-09-02T08:37:02.274Z,5.10
2017-09-02T08:39:30.050Z,4.17
2017-09-02T08:41:57.787Z,4.07
2017-09-02T08:44:25.703Z,3.40
2017-09-02T08:46:53.536Z,3.73
2017-09-02T08:49:21.245Z,3.90
2017-09-02T08:51:49.140Z,4.40
2017-09-02T08:54:16.989Z,4.50
2017-09-02T08:56:44.855Z,4.10
2017-09-02T08:59:12.846Z,3.17
2017-09-02T09:01:40.644Z,3.07
2017-09-02T09:04:08.506Z,2.40
2017-09-02T09:06:36.305Z,2.10
2017-09-02T09:09:04.292Z,2.33
2017-09-02T09:11:32.192Z,2.93
2017-09-02T09:14:00.105Z,3.30
2017-09-02T09:16:28.096Z,3.23
2017-09-02T09:18:55.818Z,2.90
2017-09-02T09:21:23.784Z,2.90
2017-09-02T09:23:52.616Z,2.77
2017-09-02T09:26:20.536Z,2.23
2017-09-02T09:28:48.462Z,2.93
2017-09-02T09:31:16.209Z,2.13
2017-09-02T09:33:44.179Z,2.97
2017-09-02T09:36:11.934Z,2.80
2017-09-02T09:38:39.881Z,2.97
2017-09-02T09:41:07.723Z,3.20
2017-09-02T09:43:35.817Z,2.80
2017-09-02T09:46:03.708Z,2.37
2017-09-02T09:48:31.542Z,2.33
2017-09-02T09:50:59.663Z,2.60
2017-09-02T09:53:27.675Z,2.40
2017-09-02T09:55:55.567Z,2.60
2017-09-02T09:58:23.460Z,2.50
2017-09-02T10:00:51.385Z,2.50
2017-09-02T10:03:19.219Z,2.60
2017-09-02T10:05:46.977Z,2.40
2017-09-02T10:08:14.892Z,2.23
2017-09-02T10:10:42.885Z,2.60
2017-09-02T10:13:10.780Z,2.17
2017-09-02T10:15:38.655Z,2.10
2017-09-02T10:18:06.496Z,1.67
2017-09-02T10:20:34.369Z,1.43
2017-09-02T10:23:02.274Z,1.40
2017-09-02T10:25:30.148Z,1.93
2017-09-02T10:27:57.976Z,1.70
2017-09-02T10:30:25.919Z,1.30
2017-09-02T10:32:53.751Z,1.10
2017-09-02T10:35:21.655Z,1.20
2017-09-02T10:37:49.481Z,1.27
2017-09-02T10:40:17.356Z,1.43
2017-09-02T10:42:45.232Z,1.40
2017-09-02T10:45:12.963Z,1.50
2017-09-02T10:47:40.841Z,1.30
2017-09-02T10:50:08.661Z,1.40
2017-09-02T10:52:36.557Z,1.27
2017-09-02T10:55:04.373Z,1.53
2017-09-02T10:57:32.185Z,1.60
2017-09-02T11:00:00.036Z,1.40
2017-09-02T11:02:27.910Z,1.37
2017-09-02T11:04:55.726Z,1.80
2017-09-02T11:07:23.585Z,1.20
2017-09-02T11:09:51.412Z,1.20
2017-09-02T11:12:19.245Z,1.53
2017-09-02T11:14:47.140Z,1.57
2017-09-02T11:17:14.867Z,1.53
2017-09-02T11:19:42.662Z,1.80
2017-09-02T11:22:10.374Z,1.43
2017-09-02T11:24:38.147Z,1.60
2017-09-02T11:27:05.979Z,1.60
2017-09-02T11:29:33.774Z,1.47
2017-09-02T11:32:01.614Z,1.30
2017-09-02T11:34:29.514Z,1.50
2017-09-02T11:36:57.239Z,1.43
2017-09-02T11:39:25.090Z,1.60
2017-09-02T11:41:52.935Z,1.67
2017-09-02T11:44:20.850Z,1.80
2017-09-02T11:46:48.693Z,1.73
2017-09-02T11:49:16.501Z,1.47
2017-09-02T11:51:44.353Z,1.20
2017-09-02T11:54:12.212Z,1.30
2017-09-02T11:56:40.102Z,1.20
2017-09-02T11:59:07.907Z,1.40
2017-09-02T12:01:35.794Z,1.60
2017-09-02T12:04:03.613Z,1.53
2017-09-02T12:06:31.489Z,1.53
2017-09-02T12:08:59.348Z,1.20
2017-09-02T12:11:27.222Z,1.57
2017-09-02T12:13:55.044Z,1.50
2017-09-02T12:16:22.921Z,1.37
2017-09-02T12:18:50.802Z,1.40
2017-09-02T12:21:18.646Z,1.50
2017-09-02T12:23:46.529Z,1.47
2017-09-02T12:26:14.355Z,1.40
2017-09-02T12:28:42.254Z,1.30
2017-09-02T12:31:10.089Z,1.50
2017-09-02T12:33:37.992Z,1.30
2017-09-02T12:36:05.831Z,1.30
2017-09-02T12:38:33.715Z,1.33
2017-09-02T12:41:01.542Z,1.73
2017-09-02T12:43:29.425Z,1.47
2017-09-02T12:45:57.246Z,1.60
2017-09-02T12:48:25.100Z,1.60
2017-09-02T12:50:52.925Z,1.40
2017-09-02T12:53:20.744Z,1.50
2017-09-02T12:55:48.601Z,1.73
2017-09-02T12:58:16.434Z,1.70
2017-09-02T13:00:44.311Z,1.63
2017-09-02T13:03:12.136Z,1.60
2017-09-02T13:05:40.073Z,1.60
2017-09-02T13:08:07.913Z,1.50
2017-09-02T13:10:35.773Z,1.73
2017-09-02T13:13:03.626Z,1.53
2017-09-02T13:15:31.473Z,1.70
2017-09-02T13:17:59.296Z,1.57
2017-09-02T13:20:27.181Z,1.47
2017-09-02T13:22:55.078Z,1.33
2017-09-02T13:25:22.948Z,1.40
2017-09-02T13:27:50.763Z,1.50
2017-09-02T13:30:18.595Z,1.40
2017-09-02T13:32:46.480Z,1.43
2017-09-02T13:35:14.312Z,1.30
2017-09-02T13:37:42.189Z,1.40
2017-09-02T13:40:10.032Z,1.53
2017-09-02T13:42:37.902Z,1.60
2017-09-02T13:45:05.752Z,1.27
2017-09-02T13:47:33.655Z,1.87
2017-09-02T13:50:01.482Z,1.40
2017-09-02T13:52:29.344Z,1.30
2017-09-02T13:54:57.182Z,1.50
2017-09-02T13:57:25.062Z,1.53
2017-09-02T13:59:52.883Z,1.40
2017-09-02T14:02:20.945Z,1.27
2017-09-02T14:04:48.752Z,1.70
2017-09-02T14:07:16.586Z,1.77
2017-09-02T14:09:44.517Z,1.83
2017-09-02T14:12:12.434Z,1.53
2017-09-02T14:14:40.381Z,1.60
2017-09-02T14:17:08.213Z,1.90
2017-09-02T14:19:36.061Z,1.73
2017-09-02T14:22:03.935Z,1.60
2017-09-02T14:24:31.910Z,1.70
2017-09-02T14:27:00.435Z,1.60
2017-09-02T14:29:28.351Z,1.40
2017-09-02T14:31:56.668Z,1.70
2017-09-02T14:34:24.552Z,1.50
2017-09-02T14:36:52.379Z,1.80
2017-09-02T14:39:20.263Z,1.30
2017-09-02T14:41:48.131Z,1.73
2017-09-02T14:44:15.983Z,1.50
2017-09-02T14:46:43.829Z,1.43
2017-09-02T14:49:11.686Z,1.30
2017-09-02T14:51:39.556Z,1.70
2017-09-02T14:54:07.405Z,1.47
2017-09-02T14:56:35.290Z,1.77
2017-09-02T14:59:03.115Z,1.70
2017-09-02T15:01:30.992Z,1.93
2017-09-02T15:03:58.836Z,1.80
2017-09-02T15:06:26.751Z,1.50
2017-09-02T15:08:54.573Z,2.00
2017-09-02T15:11:22.454Z,1.90
2017-09-02T15:13:50.273Z,2.00
2017-09-02T15:16:18.105Z,1.67
2017-09-02T15:18:45.963Z,1.90
2017-09-02T15:21:13.789Z,1.70
2017-09-02T15:23:41.701Z,1.43
2017-09-02T15:26:09.538Z,1.77
2017-09-02T15:28:37.403Z,1.67
2017-09-02T15:31:05.207Z,1.63
2017-09-02T15:33:33.093Z,1.57
2017-09-02T15:36:00.962Z,1.70
2017-09-02T15:38:28.877Z,1.40
2017-09-02T15:40:56.703Z,1.33
2017-09-02T15:43:24.608Z,1.30
2017-09-02T15:45:52.433Z,1.80
2017-09-02T15:48:20.250Z,1.30
2017-09-02T15:50:48.097Z,1.60
2017-09-02T15:53:15.916Z,1.53
2017-09-02T15:55:43.760Z,1.67
2017-09-02T15:58:11.590Z,1.60
2017-09-02T16:00:39.464Z,1.50
2017-09-02T16:03:07.299Z,1.40
2017-09-02T16:05:35.187Z,1.73
2017-09-02T16:08:03.018Z,1.60
2017-09-02T16:10:30.982Z,1.90
2017-09-02T16:12:58.804Z,1.30
2017-09-02T16:15:26.702Z,1.60
2017-09-02T16:17:54.546Z,1.50
2017-09-02T16:20:22.385Z,1.90
2017-09-02T16:22:50.418Z,1.43
2017-09-02T16:25:18.367Z,1.43
2017-09-02T16:27:46.161Z,1.40
2017-09-02T16:30:14.001Z,1.70
2017-09-02T16:32:41.879Z,1.37
2017-09-02T16:35:09.709Z,1.60
2017-09-02T16:37:37.570Z,1.33
2017-09-02T16:40:05.388Z,1.60
2017-09-02T16:42:33.252Z,1.30
2017-09-02T16:45:01.048Z,1.57
2017-09-02T16:47:29.016Z,1.50
2017-09-02T16:49:56.981Z,1.60
2017-09-02T16:52:24.926Z,1.40
2017-09-02T16:54:52.812Z,1.70
2017-09-02T16:57:20.775Z,1.50
2017-09-02T16:59:48.647Z,2.10
2017-09-02T17:02:16.531Z,1.40
2017-09-02T17:04:44.453Z,1.50
2017-09-02T17:07:12.350Z,1.37
2017-09-02T17:09:40.270Z,1.40
2017-09-02T17:12:08.168Z,1.47
2017-09-02T17:14:36.081Z,1.70
2017-09-02T17:17:03.961Z,1.80
2017-09-02T17:19:31.873Z,1.70
2017-09-02T17:21:59.747Z,1.70
2017-09-02T17:24:27.717Z,1.57
2017-09-02T17:26:55.609Z,1.67
2017-09-02T17:29:23.478Z,1.40
2017-09-02T17:31:51.402Z,1.60
2017-09-02T17:34:19.244Z,1.53
2017-09-02T17:36:47.100Z,1.57
2017-09-02T17:39:14.918Z,1.97
2017-09-02T17:41:42.794Z,1.67
2017-09-02T17:44:10.617Z,1.80
2017-09-02T17:46:38.476Z,1.97
2017-09-02T17:49:06.285Z,1.90
2017-09-02T17:51:34.135Z,1.87
2017-09-02T17:54:01.874Z,1.93
2017-09-02T17:56:29.767Z,1.97
2017-09-02T17:58:57.576Z,1.77
2017-09-02T18:01:25.447Z,2.27
2017-09-02T18:03:53.269Z,2.00
2017-09-02T18:06:21.072Z,2.27
2017-09-02T18:08:48.941Z,2.00
2017-09-02T18:11:16.787Z,2.03
2017-09-02T18:13:44.674Z,2.00
2017-09-02T18:16:12.505Z,2.20
2017-09-02T18:18:40.425Z,1.80
2017-09-02T18:21:08.236Z,2.00
2017-09-02T18:23:36.142Z,2.23
2017-09-02T18:26:03.961Z,2.10
2017-09-02T18:28:31.804Z,2.10
2017-09-02T18:30:59.648Z,2.00
2017-09-02T18:33:27.535Z,2.33
2017-09-02T18:35:55.360Z,2.10
2017-09-02T18:38:23.255Z,2.60
2017-09-02T18:40:51.100Z,2.97
2017-09-02T18:43:18.925Z,2.53
2017-09-02T18:45:46.798Z,3.07
2017-09-02T18:48:14.640Z,2.50
2017-09-02T18:50:42.537Z,2.90
2017-09-02T18:53:10.401Z,3.00
2017-09-02T18:55:38.232Z,3.20
2017-09-02T18:58:06.032Z,2.63
2017-09-02T19:00:33.895Z,3.80
2017-09-02T19:03:01.712Z,4.93
2017-09-02T19:05:29.586Z,4.13
2017-09-02T19:07:57.312Z,4.07
2017-09-02T19:10:25.069Z,4.40
2017-09-02T19:12:52.800Z,4.50
2017-09-02T19:15:20.637Z,5.13
2017-09-02T19:17:48.504Z,5.20
2017-09-02T19:20:17.315Z,6.10
2017-09-02T19:22:45.191Z,3.90
2017-09-02T19:25:13.068Z,4.80
2017-09-02T19:27:40.961Z,4.50
2017-09-02T19:30:08.806Z,4.10
2017-09-02T19:32:36.678Z,4.33
2017-09-02T19:35:04.517Z,4.57
2017-09-02T19:37:32.383Z,4.90
2017-09-02T19:40:00.212Z,3.50
2017-09-02T19:42:28.079Z,4.20
2017-09-02T19:44:55.910Z,6.63
2017-09-02T19:47:23.805Z,5.90
2017-09-02T19:49:51.632Z,6.63
2017-09-02T19:52:19.473Z,6.60
2017-09-02T19:54:47.358Z,5.07
2017-09-02T19:57:15.101Z,5.17
2017-09-02T19:59:43.008Z,5.73
2017-09-02T20:02:10.844Z,5.70
2017-09-02T20:04:38.719Z,7.23
2017-09-02T20:07:06.568Z,7.03
2017-09-02T20:09:34.488Z,7.47
2017-09-02T20:12:02.362Z,5.60
2017-09-02T20:14:30.240Z,3.80
2017-09-02T20:16:58.060Z,4.33
2017-09-02T20:19:25.973Z,4.73
2017-09-02T20:21:53.778Z,7.67
2017-09-02T20:24:21.699Z,8.30
2017-09-02T20:26:49.526Z,8.67
2017-09-02T20:29:17.314Z,9.47
2017-09-02T20:31:45.193Z,8.50
2017-09-02T20:34:13.032Z,9.47
2017-09-02T20:36:40.882Z,8.80
2017-09-02T20:39:08.708Z,8.17
2017-09-02T20:41:36.590Z,8.00
2017-09-02T20:44:04.400Z,7.30
2017-09-02T20:46:32.266Z,9.60
2017-09-02T20:49:00.084Z,9.40
2017-09-02T20:51:27.952Z,8.23
2017-09-02T20:53:55.681Z,10.00
2017-09-02T20:56:23.545Z,9.73
2017-09-02T20:58:51.396Z,9.37
2017-09-02T21:01:19.255Z,8.60
2017-09-02T21:03:47.063Z,9.23
2017-09-02T21:06:14.948Z,9.57
2017-09-02T21:08:42.786Z,7.80
2017-09-02T21:11:10.668Z,7.50
2017-09-02T21:13:38.591Z,7.97
2017-09-02T21:16:06.420Z,8.17
2017-09-02T21:18:34.326Z,8.27
2017-09-02T21:21:02.136Z,8.93
2017-09-02T21:23:30.056Z,9.23
2017-09-02T21:25:57.896Z,11.07
2017-09-02T21:28:25.794Z,11.20
2017-09-02T21:30:53.636Z,10.17
2017-09-02T21:33:21.513Z,8.33
2017-09-02T21:35:49.325Z,9.30
2017-09-02T21:38:17.177Z,9.90
2017-09-02T21:40:45.011Z,9.43
2017-09-02T21:43:12.866Z,10.80
2017-09-02T21:45:41.725Z,9.03
2017-09-02T21:48:13.287Z,8.30
2017-09-02T21:50:44.558Z,8.03
2017-09-02T21:53:15.416Z,7.73
2017-09-02T21:55:44.185Z,9.10
2017-09-02T21:58:12.618Z,8.33
2017-09-02T22:00:42.241Z,8.50
2017-09-02T22:03:10.947Z,6.93
2017-09-02T22:05:41.721Z,6.63
2017-09-02T22:08:11.556Z,6.70
2017-09-02T22:10:40.596Z,6.63
2017-09-02T22:13:10.340Z,6.83
2017-09-02T22:15:40.116Z,7.40
2017-09-02T22:18:10.768Z,6.77
2017-09-02T22:20:41.195Z,8.17
2017-09-02T22:23:11.646Z,9.63
2017-09-02T22:25:40.252Z,8.80
2017-09-02T22:28:10.222Z,7.40
2017-09-02T22:30:40.260Z,7.97
2017-09-02T22:33:08.785Z,7.80
2017-09-02T22:35:37.732Z,7.80
2017-09-02T22:38:06.756Z,8.00
2017-09-02T22:40:36.389Z,8.20
2017-09-02T22:43:05.881Z,7.50
2017-09-02T22:45:34.578Z,7.23
2017-09-02T22:48:04.306Z,7.73
2017-09-02T22:50:33.216Z,6.87
2017-09-02T22:53:02.954Z,5.90
2017-09-02T22:55:32.161Z,6.70
2017-09-02T22:58:01.294Z,6.90
2017-09-02T23:00:30.084Z,5.60
2017-09-02T23:02:58.035Z,5.47
2017-09-02T23:05:29.126Z,6.67
2017-09-02T23:07:58.196Z,6.47
2017-09-02T23:10:28.955Z,7.10
2017-09-02T23:13:00.175Z,7.03
2017-09-02T23:15:29.988Z,6.70
2017-09-02T23:18:00.350Z,7.20
2017-09-02T23:20:29.357Z,7.30
2017-09-02T23:22:59.551Z,6.77
2017-09-02T23:25:29.807Z,6.27
2017-09-02T23:27:59.251Z,6.60
2017-09-02T23:30:29.197Z,5.63
2017-09-02T23:33:10.561Z,5.40
2017-09-02T23:35:39.596Z,5.13
2017-09-02T23:38:09.193Z,5.60
2017-09-02T23:40:37.220Z,6.30
2017-09-02T23:43:05.589Z,6.23
2017-09-02T23:45:36.055Z,5.77
2017-09-02T23:48:05.135Z,6.37
2017-09-02T23:50:33.576Z,5.90
2017-09-02T23:53:02.729Z,5.77
2017-09-02T23:55:31.785Z,6.10
2017-09-02T23:58:02.101Z,5.53
